createdAt,value
2023-01-08T00:00:19.747Z,34.60
2023-01-08T00:00:49.735Z,34.58
2023-01-08T00:01:19.700Z,34.59
2023-01-08T00:01:49.693Z,34.62
2023-01-08T00:02:19.827Z,34.54
2023-01-08T00:02:50.045Z,34.60
2023-01-08T00:03:19.999Z,34.56
2023-01-08T00:03:50.076Z,34.58
2023-01-08T00:04:20.001Z,34.59
2023-01-08T00:04:49.992Z,34.56
2023-01-08T00:05:20.134Z,34.62
2023-01-08T00:05:50.111Z,34.60
2023-01-08T00:06:20.102Z,34.59
2023-01-08T00:06:50.098Z,34.62
2023-01-08T00:07:20.255Z,34.58
2023-01-08T00:07:50.243Z,34.62
2023-01-08T00:08:20.363Z,34.56
2023-01-08T00:08:50.335Z,34.62
2023-01-08T00:09:20.448Z,34.62
2023-01-08T00:09:50.615Z,34.60
2023-01-08T00:10:20.646Z,34.62
2023-01-08T00:10:50.642Z,34.62
2023-01-08T00:11:20.752Z,34.59
2023-01-08T00:11:50.763Z,34.59
2023-01-08T00:12:20.889Z,34.60
2023-01-08T00:12:50.895Z,34.58
2023-01-08T00:13:20.883Z,34.58
2023-01-08T00:13:50.998Z,34.59
2023-01-08T00:14:21.124Z,34.57
2023-01-08T00:14:51.230Z,34.57
2023-01-08T00:15:21.345Z,34.60
2023-01-08T00:15:51.343Z,34.63
2023-01-08T00:16:21.553Z,34.63
2023-01-08T00:16:51.614Z,34.62
2023-01-08T00:17:21.679Z,34.59
2023-01-08T00:17:51.669Z,34.62
2023-01-08T00:18:21.789Z,34.55
2023-01-08T00:18:51.919Z,34.60
2023-01-08T00:19:21.900Z,34.59
2023-01-08T00:19:52.016Z,34.57
2023-01-08T00:20:22.136Z,34.62
2023-01-08T00:20:52.137Z,34.66
2023-01-08T00:21:22.258Z,34.62
2023-01-08T00:21:52.377Z,34.57
2023-01-08T00:22:22.519Z,34.57
2023-01-08T00:22:52.531Z,34.59
2023-01-08T00:23:22.642Z,34.62
2023-01-08T00:23:52.606Z,34.60
2023-01-08T00:24:22.733Z,34.56
2023-01-08T00:24:52.728Z,34.63
2023-01-08T00:25:22.847Z,34.64
2023-01-08T00:25:52.843Z,34.60
2023-01-08T00:26:22.842Z,34.62
2023-01-08T00:26:52.965Z,34.60
2023-01-08T00:27:23.075Z,34.63
2023-01-08T00:27:53.190Z,34.62
2023-01-08T00:28:23.187Z,34.60
2023-01-08T00:28:53.184Z,34.60
2023-01-08T00:29:23.302Z,34.57
2023-01-08T00:29:53.416Z,34.60
2023-01-08T00:30:23.544Z,34.66
2023-01-08T00:30:53.598Z,34.62
2023-01-08T00:31:23.756Z,34.61
2023-01-08T00:31:53.670Z,34.62
2023-01-08T00:32:23.779Z,34.64
2023-01-08T00:32:53.894Z,34.59
2023-01-08T00:33:24.010Z,34.59
2023-01-08T00:33:54.145Z,34.62
2023-01-08T00:34:24.130Z,34.64
2023-01-08T00:34:54.253Z,34.66
2023-01-08T00:35:24.251Z,34.64
2023-01-08T00:35:54.250Z,34.62
2023-01-08T00:36:24.354Z,34.62
2023-01-08T00:36:54.477Z,34.62
2023-01-08T00:37:24.592Z,34.60
2023-01-08T00:37:54.587Z,34.66
2023-01-08T00:38:24.823Z,34.63
2023-01-08T00:38:54.787Z,34.57
2023-01-08T00:39:24.798Z,34.60
2023-01-08T00:39:54.787Z,34.63
2023-01-08T00:40:24.906Z,34.60
2023-01-08T00:40:54.899Z,34.57
2023-01-08T00:41:24.899Z,34.60
2023-01-08T00:41:55.013Z,34.63
2023-01-08T00:42:25.113Z,34.65
2023-01-08T00:42:55.196Z,34.67
2023-01-08T00:43:25.288Z,34.63
2023-01-08T00:43:55.362Z,34.60
2023-01-08T00:44:25.445Z,34.62
2023-01-08T00:44:55.529Z,34.62
2023-01-08T00:45:25.624Z,34.62
2023-01-08T00:45:55.814Z,34.59
2023-01-08T00:46:25.831Z,34.66
2023-01-08T00:46:55.889Z,34.60
2023-01-08T00:47:25.971Z,34.67
2023-01-08T00:47:56.059Z,34.59
2023-01-08T00:48:26.140Z,34.61
2023-01-08T00:48:56.231Z,34.66
2023-01-08T00:49:26.297Z,34.63
2023-01-08T00:49:56.384Z,34.60
2023-01-08T00:50:26.479Z,34.60
2023-01-08T00:50:56.541Z,34.62
2023-01-08T00:51:26.617Z,34.60
2023-01-08T00:51:56.701Z,34.63
2023-01-08T00:52:26.817Z,34.65
2023-01-08T00:52:56.937Z,34.60
2023-01-08T00:53:27.049Z,34.55
2023-01-08T00:53:57.026Z,34.63
2023-01-08T00:54:27.154Z,34.60
2023-01-08T00:54:57.251Z,34.62
2023-01-08T00:55:27.370Z,34.56
2023-01-08T00:55:57.370Z,34.61
2023-01-08T00:56:27.479Z,34.64
2023-01-08T00:56:57.591Z,34.60
2023-01-08T00:57:27.719Z,34.64
2023-01-08T00:57:57.703Z,34.60
2023-01-08T00:58:27.820Z,34.57
2023-01-08T00:58:57.936Z,34.64
2023-01-08T00:59:27.930Z,34.60
2023-01-08T00:59:57.921Z,34.62
2023-01-08T01:00:28.039Z,34.60
2023-01-08T01:00:58.080Z,34.62
2023-01-08T01:01:28.236Z,34.63
2023-01-08T01:01:58.230Z,34.66
2023-01-08T01:02:28.146Z,34.57
2023-01-08T01:02:58.144Z,34.60
2023-01-08T01:03:28.143Z,34.59
2023-01-08T01:03:58.192Z,34.65
2023-01-08T01:04:28.283Z,34.65
2023-01-08T01:04:58.277Z,34.63
2023-01-08T01:05:28.399Z,34.60
2023-01-08T01:05:58.510Z,34.62
2023-01-08T01:06:28.627Z,34.63
2023-01-08T01:06:58.621Z,34.59
2023-01-08T01:07:28.742Z,34.59
2023-01-08T01:07:58.852Z,34.62
2023-01-08T01:08:28.971Z,34.60
2023-01-08T01:08:59.111Z,34.59
2023-01-08T01:09:29.072Z,34.61
2023-01-08T01:09:59.068Z,34.59
2023-01-08T01:10:29.200Z,34.60
2023-01-08T01:10:59.184Z,34.66
2023-01-08T01:11:29.306Z,34.63
2023-01-08T01:11:59.304Z,34.60
2023-01-08T01:12:29.302Z,34.60
2023-01-08T01:12:59.291Z,34.64
2023-01-08T01:13:29.413Z,34.57
2023-01-08T01:13:59.523Z,34.58
2023-01-08T01:14:29.648Z,34.63
2023-01-08T01:14:59.658Z,34.64
2023-01-08T01:15:29.769Z,34.64
2023-01-08T01:15:59.765Z,34.66
2023-01-08T01:16:29.897Z,34.56
2023-01-08T01:17:00.013Z,34.58
2023-01-08T01:17:30.053Z,34.53
2023-01-08T01:18:00.042Z,34.58
2023-01-08T01:18:30.159Z,34.60
2023-01-08T01:19:00.277Z,34.66
2023-01-08T01:19:30.268Z,34.56
2023-01-08T01:20:00.264Z,34.61
2023-01-08T01:20:30.392Z,34.64
2023-01-08T01:21:00.413Z,34.60
2023-01-08T01:21:30.404Z,34.62
2023-01-08T01:22:00.518Z,34.60
2023-01-08T01:22:30.654Z,34.64
2023-01-08T01:23:00.648Z,34.56
2023-01-08T01:23:30.764Z,34.59
2023-01-08T01:24:01.005Z,34.61
2023-01-08T01:24:30.968Z,34.60
2023-01-08T01:25:01.095Z,34.56
2023-01-08T01:25:31.196Z,34.60
2023-01-08T01:26:01.312Z,34.56
2023-01-08T01:26:31.427Z,34.58
2023-01-08T01:27:01.569Z,34.63
2023-01-08T01:27:31.558Z,34.57
2023-01-08T01:28:01.672Z,34.60
2023-01-08T01:28:31.790Z,34.56
2023-01-08T01:29:01.793Z,34.65
2023-01-08T01:29:31.797Z,34.63
2023-01-08T01:30:01.792Z,34.61
2023-01-08T01:30:32.027Z,34.59
2023-01-08T01:31:02.133Z,34.60
2023-01-08T01:31:32.134Z,34.61
2023-01-08T01:32:02.144Z,34.64
2023-01-08T01:32:32.128Z,34.63
2023-01-08T01:33:02.254Z,34.60
2023-01-08T01:33:32.360Z,34.60
2023-01-08T01:34:02.353Z,34.63
2023-01-08T01:34:32.476Z,34.63
2023-01-08T01:35:02.467Z,34.63
2023-01-08T01:35:32.586Z,34.69
2023-01-08T01:36:02.591Z,34.58
2023-01-08T01:36:32.589Z,34.61
2023-01-08T01:37:02.620Z,34.63
2023-01-08T01:37:32.612Z,34.60
2023-01-08T01:38:02.736Z,34.63
2023-01-08T01:38:32.844Z,34.63
2023-01-08T01:39:03.086Z,34.65
2023-01-08T01:39:33.048Z,34.64
2023-01-08T01:40:03.151Z,34.61
2023-01-08T01:40:33.279Z,34.61
2023-01-08T01:41:03.389Z,34.58
2023-01-08T01:41:33.511Z,34.57
2023-01-08T01:42:03.528Z,34.61
2023-01-08T01:42:33.613Z,34.67
2023-01-08T01:43:03.683Z,34.63
2023-01-08T01:43:33.757Z,34.61
2023-01-08T01:44:03.844Z,34.64
2023-01-08T01:44:33.923Z,34.58
2023-01-08T01:45:04.002Z,34.57
2023-01-08T01:45:34.123Z,34.67
2023-01-08T01:46:04.276Z,34.67
2023-01-08T01:46:34.226Z,34.57
2023-01-08T01:47:04.301Z,34.63
2023-01-08T01:47:34.376Z,34.61
2023-01-08T01:48:04.464Z,34.60
2023-01-08T01:48:34.538Z,34.61
2023-01-08T01:49:04.611Z,34.64
2023-01-08T01:49:34.686Z,34.67
2023-01-08T01:50:04.762Z,34.63
2023-01-08T01:50:34.865Z,34.64
2023-01-08T01:51:04.921Z,34.60
2023-01-08T01:51:35.022Z,34.61
2023-01-08T01:52:05.079Z,34.60
2023-01-08T01:52:35.200Z,34.58
2023-01-08T01:53:05.201Z,34.61
2023-01-08T01:53:35.213Z,34.64
2023-01-08T01:54:05.426Z,34.64
2023-01-08T01:54:35.384Z,34.65
2023-01-08T01:55:05.532Z,34.64
2023-01-08T01:55:35.508Z,34.57
2023-01-08T01:56:05.622Z,34.64
2023-01-08T01:56:35.752Z,34.65
2023-01-08T01:57:05.737Z,34.59
2023-01-08T01:57:35.854Z,34.60
2023-01-08T01:58:05.841Z,34.60
2023-01-08T01:58:35.961Z,34.61
2023-01-08T01:59:06.085Z,34.63
2023-01-08T01:59:36.198Z,34.63
2023-01-08T02:00:06.196Z,34.66
2023-01-08T02:00:36.322Z,34.58
2023-01-08T02:01:06.377Z,34.60
2023-01-08T02:01:36.584Z,34.61
2023-01-08T02:02:06.614Z,34.65
2023-01-08T02:02:36.554Z,34.61
2023-01-08T02:03:06.545Z,34.59
2023-01-08T02:03:36.568Z,34.61
2023-01-08T02:04:06.714Z,34.64
2023-01-08T02:04:36.591Z,34.58
2023-01-08T02:05:06.604Z,34.63
2023-01-08T02:05:36.602Z,34.68
2023-01-08T02:06:06.707Z,34.58
2023-01-08T02:06:36.825Z,34.57
2023-01-08T02:07:06.957Z,34.63
2023-01-08T02:07:37.062Z,34.63
2023-01-08T02:08:07.180Z,34.63
2023-01-08T02:08:37.296Z,34.65
2023-01-08T02:09:07.538Z,34.64
2023-01-08T02:09:37.497Z,34.63
2023-01-08T02:10:07.550Z,34.67
2023-01-08T02:10:37.553Z,34.57
2023-01-08T02:11:07.673Z,34.63
2023-01-08T02:11:37.788Z,34.60
2023-01-08T02:12:07.771Z,34.61
2023-01-08T02:12:37.899Z,34.61
2023-01-08T02:13:08.006Z,34.60
2023-01-08T02:13:38.124Z,34.64
2023-01-08T02:14:08.240Z,34.61
2023-01-08T02:14:38.357Z,34.64
2023-01-08T02:15:08.490Z,34.60
2023-01-08T02:15:38.485Z,34.61
2023-01-08T02:16:08.608Z,34.64
2023-01-08T02:16:38.821Z,34.64
2023-01-08T02:17:08.811Z,34.64
2023-01-08T02:17:38.909Z,34.63
2023-01-08T02:18:09.036Z,34.64
2023-01-08T02:18:39.145Z,34.61
2023-01-08T02:19:09.138Z,34.64
2023-01-08T02:19:39.256Z,34.60
2023-01-08T02:20:09.390Z,34.64
2023-01-08T02:20:39.396Z,34.64
2023-01-08T02:21:09.505Z,34.68
2023-01-08T02:21:39.615Z,34.61
2023-01-08T02:22:09.731Z,34.61
2023-01-08T02:22:39.724Z,34.63
2023-01-08T02:23:09.845Z,34.68
2023-01-08T02:23:39.969Z,34.61
2023-01-08T02:24:10.211Z,34.63
2023-01-08T02:24:40.177Z,34.63
2023-01-08T02:25:10.309Z,34.67
2023-01-08T02:25:40.297Z,34.64
2023-01-08T02:26:10.411Z,34.64
2023-01-08T02:26:40.540Z,34.61
2023-01-08T02:27:10.654Z,34.63
2023-01-08T02:27:40.647Z,34.64
2023-01-08T02:28:10.767Z,34.65
2023-01-08T02:28:40.752Z,34.63
2023-01-08T02:29:10.873Z,34.68
2023-01-08T02:29:40.875Z,34.67
2023-01-08T02:30:10.899Z,34.63
2023-01-08T02:30:40.946Z,34.67
2023-01-08T02:31:11.033Z,34.67
2023-01-08T02:31:41.051Z,34.61
2023-01-08T02:32:11.146Z,34.63
2023-01-08T02:32:41.140Z,34.68
2023-01-08T02:33:11.260Z,34.60
2023-01-08T02:33:41.395Z,34.71
2023-01-08T02:34:11.496Z,34.64
2023-01-08T02:34:41.621Z,34.65
2023-01-08T02:35:11.756Z,34.64
2023-01-08T02:35:41.739Z,34.68
2023-01-08T02:36:11.858Z,34.67
2023-01-08T02:36:41.990Z,34.64
2023-01-08T02:37:12.096Z,34.64
2023-01-08T02:37:42.207Z,34.67
2023-01-08T02:38:12.324Z,34.64
2023-01-08T02:38:42.447Z,34.68
2023-01-08T02:39:12.559Z,34.65
2023-01-08T02:39:42.675Z,34.68
2023-01-08T02:40:12.651Z,34.66
2023-01-08T02:40:42.649Z,34.64
2023-01-08T02:41:12.764Z,34.62
2023-01-08T02:41:42.879Z,34.68
2023-01-08T02:42:12.982Z,34.68
2023-01-08T02:42:43.068Z,34.65
2023-01-08T02:43:13.144Z,34.67
2023-01-08T02:43:43.221Z,34.62
2023-01-08T02:44:13.308Z,34.64
2023-01-08T02:44:43.378Z,34.63
2023-01-08T02:45:13.483Z,34.65
2023-01-08T02:45:43.582Z,34.64
2023-01-08T02:46:13.750Z,34.66
2023-01-08T02:46:43.683Z,34.69
2023-01-08T02:47:13.771Z,34.68
2023-01-08T02:47:43.844Z,34.68
2023-01-08T02:48:13.934Z,34.64
2023-01-08T02:48:44.009Z,34.65
2023-01-08T02:49:14.094Z,34.68
2023-01-08T02:49:44.179Z,34.70
2023-01-08T02:50:14.273Z,34.70
2023-01-08T02:50:44.378Z,34.62
2023-01-08T02:51:14.438Z,34.69
2023-01-08T02:51:44.513Z,34.66
2023-01-08T02:52:14.610Z,34.70
2023-01-08T02:52:44.606Z,34.65
2023-01-08T02:53:14.713Z,34.68
2023-01-08T02:53:44.714Z,34.69
2023-01-08T02:54:14.714Z,34.65
2023-01-08T02:54:44.823Z,34.64
2023-01-08T02:55:14.955Z,34.68
2023-01-08T02:55:44.928Z,34.68
2023-01-08T02:56:15.029Z,34.70
2023-01-08T02:56:45.021Z,34.69
2023-01-08T02:57:15.153Z,34.68
2023-01-08T02:57:45.256Z,34.67
2023-01-08T02:58:15.383Z,34.69
2023-01-08T02:58:45.372Z,34.69
2023-01-08T02:59:15.499Z,34.62
2023-01-08T02:59:45.611Z,34.76
2023-01-08T03:00:15.626Z,34.68
2023-01-08T03:00:45.612Z,34.68
2023-01-08T03:01:15.877Z,34.68
2023-01-08T03:01:46.013Z,34.68
2023-01-08T03:02:16.009Z,34.69
2023-01-08T03:02:45.873Z,34.65
2023-01-08T03:03:15.992Z,34.68
2023-01-08T03:03:46.077Z,34.70
2023-01-08T03:04:16.157Z,34.71
2023-01-08T03:04:46.052Z,34.70
2023-01-08T03:05:16.189Z,34.69
2023-01-08T03:05:46.175Z,34.66
2023-01-08T03:06:16.294Z,34.75
2023-01-08T03:06:46.292Z,34.70
2023-01-08T03:07:16.430Z,34.66
2023-01-08T03:07:46.400Z,34.69
2023-01-08T03:08:16.519Z,34.72
2023-01-08T03:08:46.638Z,34.66
2023-01-08T03:09:16.761Z,34.69
2023-01-08T03:09:46.754Z,34.70
2023-01-08T03:10:16.749Z,34.70
2023-01-08T03:10:46.870Z,34.73
2023-01-08T03:11:16.844Z,34.69
2023-01-08T03:11:46.837Z,34.74
2023-01-08T03:12:16.964Z,34.70
2023-01-08T03:12:47.071Z,34.73
2023-01-08T03:13:17.062Z,34.70
2023-01-08T03:13:47.181Z,34.72
2023-01-08T03:14:17.299Z,34.70
2023-01-08T03:14:47.298Z,34.73
2023-01-08T03:15:17.421Z,34.68
2023-01-08T03:15:47.411Z,34.69
2023-01-08T03:16:17.583Z,34.73
2023-01-08T03:16:47.662Z,34.71
2023-01-08T03:17:17.664Z,34.73
2023-01-08T03:17:47.782Z,34.74
2023-01-08T03:18:17.787Z,34.77
2023-01-08T03:18:47.900Z,34.71
2023-01-08T03:19:18.017Z,34.73
2023-01-08T03:19:48.132Z,34.74
2023-01-08T03:20:18.131Z,34.73
2023-01-08T03:20:48.263Z,34.72
2023-01-08T03:21:18.297Z,34.73
2023-01-08T03:21:48.252Z,34.72
2023-01-08T03:22:18.379Z,34.75
2023-01-08T03:22:48.491Z,34.74
2023-01-08T03:23:18.611Z,34.70
2023-01-08T03:23:48.612Z,34.69
2023-01-08T03:24:18.728Z,34.69
2023-01-08T03:24:48.722Z,34.73
2023-01-08T03:25:18.848Z,34.69
2023-01-08T03:25:48.859Z,34.70
2023-01-08T03:26:19.093Z,34.74
2023-01-08T03:26:49.052Z,34.73
2023-01-08T03:27:19.168Z,34.69
2023-01-08T03:27:49.160Z,34.70
2023-01-08T03:28:19.164Z,34.69
2023-01-08T03:28:49.149Z,34.70
2023-01-08T03:29:19.273Z,34.69
2023-01-08T03:29:49.268Z,34.68
2023-01-08T03:30:19.258Z,34.76
2023-01-08T03:30:49.322Z,34.71
2023-01-08T03:31:19.407Z,34.75
2023-01-08T03:31:49.390Z,34.73
2023-01-08T03:32:19.385Z,34.70
2023-01-08T03:32:49.499Z,34.76
2023-01-08T03:33:19.619Z,34.74
2023-01-08T03:33:49.621Z,34.79
2023-01-08T03:34:19.729Z,34.72
2023-01-08T03:34:49.845Z,34.75
2023-01-08T03:35:19.841Z,34.70
2023-01-08T03:35:49.968Z,34.73
2023-01-08T03:36:19.956Z,34.68
2023-01-08T03:36:49.950Z,34.75
2023-01-08T03:37:20.068Z,34.73
2023-01-08T03:37:50.182Z,34.72
2023-01-08T03:38:20.297Z,34.73
2023-01-08T03:38:50.416Z,34.71
2023-01-08T03:39:20.552Z,34.73
2023-01-08T03:39:50.651Z,34.70
2023-01-08T03:40:20.772Z,34.76
2023-01-08T03:40:50.772Z,34.72
2023-01-08T03:41:20.897Z,34.69
2023-01-08T03:41:51.122Z,34.72
2023-01-08T03:42:21.083Z,34.73
2023-01-08T03:42:51.143Z,34.70
2023-01-08T03:43:21.218Z,34.71
2023-01-08T03:43:51.295Z,34.71
2023-01-08T03:44:21.379Z,34.72
2023-01-08T03:44:51.457Z,34.73
2023-01-08T03:45:21.568Z,34.76
2023-01-08T03:45:51.698Z,34.73
2023-01-08T03:46:21.811Z,34.74
2023-01-08T03:46:51.788Z,34.74
2023-01-08T03:47:21.870Z,34.73
2023-01-08T03:47:51.956Z,34.74
2023-01-08T03:48:22.048Z,34.70
2023-01-08T03:48:52.113Z,34.70
2023-01-08T03:49:22.194Z,34.74
2023-01-08T03:49:52.274Z,34.72
2023-01-08T03:50:22.348Z,34.72
2023-01-08T03:50:52.472Z,34.71
2023-01-08T03:51:22.518Z,34.79
2023-01-08T03:51:52.595Z,34.74
2023-01-08T03:52:22.696Z,34.70
2023-01-08T03:52:52.699Z,34.73
2023-01-08T03:53:22.812Z,34.77
2023-01-08T03:53:52.931Z,34.75
2023-01-08T03:54:22.923Z,34.70
2023-01-08T03:54:52.919Z,34.72
2023-01-08T03:55:23.039Z,34.75
2023-01-08T03:55:53.051Z,34.76
2023-01-08T03:56:23.033Z,34.73
2023-01-08T03:56:53.146Z,34.76
2023-01-08T03:57:23.394Z,34.72
2023-01-08T03:57:53.363Z,34.71
2023-01-08T03:58:23.492Z,34.73
2023-01-08T03:58:53.600Z,34.72
2023-01-08T03:59:23.608Z,34.76
2023-01-08T03:59:53.587Z,34.71
2023-01-08T04:00:23.712Z,34.73
2023-01-08T04:00:53.705Z,34.72
2023-01-08T04:01:23.797Z,34.80
2023-01-08T04:01:53.837Z,34.76
2023-01-08T04:02:23.932Z,34.74
2023-01-08T04:02:53.825Z,34.72
2023-01-08T04:03:23.944Z,34.76
2023-01-08T04:03:53.952Z,34.76
2023-01-08T04:04:24.141Z,34.76
2023-01-08T04:04:54.127Z,34.74
2023-01-08T04:05:24.246Z,34.70
2023-01-08T04:05:54.242Z,34.76
2023-01-08T04:06:24.330Z,34.74
2023-01-08T04:06:54.440Z,34.76
2023-01-08T04:07:24.556Z,34.79
2023-01-08T04:07:54.551Z,34.77
2023-01-08T04:08:24.670Z,34.78
2023-01-08T04:08:54.670Z,34.74
2023-01-08T04:09:24.660Z,34.74
2023-01-08T04:09:54.792Z,34.79
2023-01-08T04:10:24.922Z,34.77
2023-01-08T04:10:54.916Z,34.74
2023-01-08T04:11:24.910Z,34.75
2023-01-08T04:11:55.025Z,34.77
2023-01-08T04:12:25.150Z,34.75
2023-01-08T04:12:55.255Z,34.74
2023-01-08T04:13:25.213Z,34.74
2023-01-08T04:13:55.330Z,34.74
2023-01-08T04:14:25.452Z,34.74
2023-01-08T04:14:55.444Z,34.78
2023-01-08T04:15:25.570Z,34.71
2023-01-08T04:15:55.642Z,34.81
2023-01-08T04:16:25.655Z,34.77
2023-01-08T04:16:55.758Z,34.82
2023-01-08T04:17:25.905Z,34.77
2023-01-08T04:17:55.881Z,34.76
2023-01-08T04:18:25.989Z,34.81
2023-01-08T04:18:55.986Z,34.77
2023-01-08T04:19:26.107Z,34.78
2023-01-08T04:19:56.214Z,34.78
2023-01-08T04:20:26.396Z,34.79
2023-01-08T04:20:56.371Z,34.74
2023-01-08T04:21:26.487Z,34.77
2023-01-08T04:21:56.595Z,34.75
2023-01-08T04:22:26.707Z,34.78
2023-01-08T04:22:56.708Z,34.80
2023-01-08T04:23:26.829Z,34.82
2023-01-08T04:23:56.823Z,34.78
2023-01-08T04:24:26.933Z,34.81
2023-01-08T04:24:57.043Z,34.81
2023-01-08T04:25:27.161Z,34.80
2023-01-08T04:25:57.153Z,34.77
2023-01-08T04:26:27.270Z,34.79
2023-01-08T04:26:57.384Z,34.78
2023-01-08T04:27:27.513Z,34.78
2023-01-08T04:27:57.626Z,34.79
2023-01-08T04:28:27.855Z,34.85
2023-01-08T04:28:57.817Z,34.79
2023-01-08T04:29:27.812Z,34.78
2023-01-08T04:29:57.925Z,34.79
2023-01-08T04:30:28.054Z,34.81
2023-01-08T04:30:58.117Z,34.80
2023-01-08T04:31:28.127Z,34.82
2023-01-08T04:31:58.114Z,34.82
2023-01-08T04:32:28.108Z,34.78
2023-01-08T04:32:58.227Z,34.77
2023-01-08T04:33:28.220Z,34.77
2023-01-08T04:33:58.336Z,34.79
2023-01-08T04:34:28.457Z,34.78
2023-01-08T04:34:58.578Z,34.81
2023-01-08T04:35:28.566Z,34.82
2023-01-08T04:35:58.697Z,34.85
2023-01-08T04:36:28.692Z,34.79
2023-01-08T04:36:58.694Z,34.79
2023-01-08T04:37:28.688Z,34.81
2023-01-08T04:37:58.707Z,34.83
2023-01-08T04:38:28.706Z,34.80
2023-01-08T04:38:58.705Z,34.81
2023-01-08T04:39:28.703Z,34.76
2023-01-08T04:39:58.750Z,34.84
2023-01-08T04:40:28.752Z,34.81
2023-01-08T04:40:58.871Z,34.81
2023-01-08T04:41:28.997Z,34.82
2023-01-08T04:41:58.996Z,34.79
2023-01-08T04:42:29.101Z,34.81
2023-01-08T04:42:59.189Z,34.82
2023-01-08T04:43:29.280Z,34.81
2023-01-08T04:43:59.400Z,34.79
2023-01-08T04:44:29.454Z,34.82
2023-01-08T04:44:59.540Z,34.81
2023-01-08T04:45:29.637Z,34.76
2023-01-08T04:45:59.849Z,34.82
2023-01-08T04:46:29.899Z,34.81
2023-01-08T04:46:59.914Z,34.78
2023-01-08T04:47:30.018Z,34.81
2023-01-08T04:48:00.099Z,34.77
2023-01-08T04:48:30.175Z,34.82
2023-01-08T04:49:00.294Z,34.81
2023-01-08T04:49:30.340Z,34.82
2023-01-08T04:50:00.461Z,34.79
2023-01-08T04:50:30.549Z,34.74
2023-01-08T04:51:00.634Z,34.77
2023-01-08T04:51:30.705Z,34.82
2023-01-08T04:52:00.794Z,34.81
2023-01-08T04:52:30.803Z,34.79
2023-01-08T04:53:00.910Z,34.79
2023-01-08T04:53:31.031Z,34.81
2023-01-08T04:54:01.038Z,34.75
2023-01-08T04:54:31.144Z,34.82
2023-01-08T04:55:01.259Z,34.80
2023-01-08T04:55:31.378Z,34.78
2023-01-08T04:56:01.373Z,34.81
2023-01-08T04:56:31.492Z,34.82
2023-01-08T04:57:01.492Z,34.75
2023-01-08T04:57:31.485Z,34.78
2023-01-08T04:58:01.596Z,34.78
2023-01-08T04:58:31.707Z,34.77
2023-01-08T04:59:01.965Z,34.80
2023-01-08T04:59:31.927Z,34.81
2023-01-08T05:00:02.050Z,34.78
2023-01-08T05:00:32.167Z,34.79
2023-01-08T05:01:02.169Z,34.79
2023-01-08T05:01:32.356Z,34.79
2023-01-08T05:02:02.468Z,34.81
2023-01-08T05:02:32.612Z,34.82
2023-01-08T05:03:02.484Z,34.78
2023-01-08T05:03:32.507Z,34.81
2023-01-08T05:04:02.489Z,34.82
2023-01-08T05:04:32.472Z,34.81
2023-01-08T05:05:02.584Z,34.85
2023-01-08T05:05:32.588Z,34.81
2023-01-08T05:06:02.600Z,34.82
2023-01-08T05:06:32.697Z,34.82
2023-01-08T05:07:02.815Z,34.85
2023-01-08T05:07:32.945Z,34.79
2023-01-08T05:08:03.057Z,34.81
2023-01-08T05:08:33.174Z,34.82
2023-01-08T05:09:03.171Z,34.78
2023-01-08T05:09:33.168Z,34.80
2023-01-08T05:10:03.295Z,34.85
2023-01-08T05:10:33.300Z,34.82
2023-01-08T05:11:03.289Z,34.81
2023-01-08T05:11:33.393Z,34.81
2023-01-08T05:12:03.396Z,34.83
2023-01-08T05:12:33.519Z,34.80
2023-01-08T05:13:03.635Z,34.83
2023-01-08T05:13:33.756Z,34.79
2023-01-08T05:14:03.750Z,34.82
2023-01-08T05:14:33.896Z,34.82
2023-01-08T05:15:03.877Z,34.78
2023-01-08T05:15:33.913Z,34.78
2023-01-08T05:16:04.027Z,34.79
2023-01-08T05:16:33.933Z,34.79
2023-01-08T05:17:04.040Z,34.83
2023-01-08T05:17:34.160Z,34.85
2023-01-08T05:18:04.287Z,34.83
2023-01-08T05:18:34.391Z,34.79
2023-01-08T05:19:04.391Z,34.79
2023-01-08T05:19:34.524Z,34.81
2023-01-08T05:20:04.638Z,34.82
2023-01-08T05:20:34.632Z,34.85
2023-01-08T05:21:04.626Z,34.83
2023-01-08T05:21:34.742Z,34.82
2023-01-08T05:22:04.861Z,34.81
2023-01-08T05:22:34.848Z,34.84
2023-01-08T05:23:04.967Z,34.82
2023-01-08T05:23:35.100Z,34.87
2023-01-08T05:24:05.224Z,34.81
2023-01-08T05:24:35.217Z,34.79
2023-01-08T05:25:05.340Z,34.89
2023-01-08T05:25:35.343Z,34.82
2023-01-08T05:26:05.377Z,34.82
2023-01-08T05:26:35.527Z,34.84
2023-01-08T05:27:05.495Z,34.78
2023-01-08T05:27:35.503Z,34.79
2023-01-08T05:28:05.609Z,34.81
2023-01-08T05:28:35.745Z,34.83
2023-01-08T05:29:05.732Z,34.87
2023-01-08T05:29:35.843Z,34.78
2023-01-08T05:30:06.077Z,34.84
2023-01-08T05:30:36.036Z,34.83
2023-01-08T05:31:06.131Z,34.81
2023-01-08T05:31:36.048Z,34.84
2023-01-08T05:32:06.166Z,34.82
2023-01-08T05:32:36.167Z,34.82
2023-01-08T05:33:06.158Z,34.79
2023-01-08T05:33:36.295Z,34.83
2023-01-08T05:34:06.277Z,34.78
2023-01-08T05:34:36.296Z,34.87
2023-01-08T05:35:06.399Z,34.86
2023-01-08T05:35:36.401Z,34.82
2023-01-08T05:36:06.398Z,34.83
2023-01-08T05:36:36.523Z,34.83
2023-01-08T05:37:06.629Z,34.85
2023-01-08T05:37:36.633Z,34.79
2023-01-08T05:38:06.747Z,34.79
2023-01-08T05:38:36.739Z,34.78
2023-01-08T05:39:06.859Z,34.81
2023-01-08T05:39:36.855Z,34.84
2023-01-08T05:40:06.979Z,34.84
2023-01-08T05:40:36.971Z,34.82
2023-01-08T05:41:06.977Z,34.83
2023-01-08T05:41:37.077Z,34.81
2023-01-08T05:42:07.195Z,34.80
2023-01-08T05:42:37.275Z,34.84
2023-01-08T05:43:07.368Z,34.81
2023-01-08T05:43:37.439Z,34.87
2023-01-08T05:44:07.528Z,34.87
2023-01-08T05:44:37.595Z,34.89
2023-01-08T05:45:07.659Z,34.83
2023-01-08T05:45:37.872Z,34.86
2023-01-08T05:46:07.843Z,34.83
2023-01-08T05:46:37.928Z,34.89
2023-01-08T05:47:07.873Z,34.88
2023-01-08T05:47:37.952Z,34.84
2023-01-08T05:48:08.040Z,34.87
2023-01-08T05:48:38.103Z,34.84
2023-01-08T05:49:08.184Z,34.84
2023-01-08T05:49:38.258Z,34.84
2023-01-08T05:50:08.336Z,34.89
2023-01-08T05:50:38.432Z,34.84
2023-01-08T05:51:08.523Z,34.86
2023-01-08T05:51:38.589Z,34.83
2023-01-08T05:52:08.675Z,34.90
2023-01-08T05:52:38.675Z,34.83
2023-01-08T05:53:08.799Z,34.86
2023-01-08T05:53:38.917Z,34.84
2023-01-08T05:54:09.023Z,34.80
2023-01-08T05:54:39.141Z,34.86
2023-01-08T05:55:09.262Z,34.83
2023-01-08T05:55:39.256Z,34.80
2023-01-08T05:56:09.554Z,34.86
2023-01-08T05:56:39.266Z,34.87
2023-01-08T05:57:09.386Z,34.81
2023-01-08T05:57:39.506Z,34.87
2023-01-08T05:58:09.620Z,34.89
2023-01-08T05:58:39.732Z,34.86
2023-01-08T05:59:09.731Z,34.81
2023-01-08T05:59:39.724Z,34.83
2023-01-08T06:00:09.851Z,34.84
2023-01-08T06:00:39.957Z,34.86
2023-01-08T06:01:09.978Z,34.84
2023-01-08T06:01:40.038Z,34.81
2023-01-08T06:02:10.055Z,34.81
2023-01-08T06:02:40.236Z,34.84
2023-01-08T06:03:10.281Z,34.86
2023-01-08T06:03:40.256Z,34.83
2023-01-08T06:04:10.411Z,34.81
2023-01-08T06:04:40.515Z,34.84
2023-01-08T06:05:10.502Z,34.77
2023-01-08T06:05:40.612Z,34.83
2023-01-08T06:06:10.731Z,34.83
2023-01-08T06:06:40.844Z,34.80
2023-01-08T06:07:10.964Z,34.84
2023-01-08T06:07:41.068Z,34.86
2023-01-08T06:08:11.187Z,34.84
2023-01-08T06:08:41.297Z,34.83
2023-01-08T06:09:11.295Z,34.89
2023-01-08T06:09:41.414Z,34.88
2023-01-08T06:10:11.548Z,34.83
2023-01-08T06:10:41.657Z,34.86
2023-01-08T06:11:11.770Z,34.84
2023-01-08T06:11:41.891Z,34.86
2023-01-08T06:12:12.014Z,34.86
2023-01-08T06:12:41.995Z,34.84
2023-01-08T06:13:12.112Z,34.80
2023-01-08T06:13:42.228Z,34.81
2023-01-08T06:14:12.345Z,34.83
2023-01-08T06:14:42.349Z,34.84
2023-01-08T06:15:12.336Z,34.86
2023-01-08T06:15:42.496Z,34.87
2023-01-08T06:16:12.431Z,34.81
2023-01-08T06:16:42.451Z,34.84
2023-01-08T06:17:12.453Z,34.83
2023-01-08T06:17:42.446Z,34.80
2023-01-08T06:18:12.555Z,34.80
2023-01-08T06:18:42.689Z,34.84
2023-01-08T06:19:12.668Z,34.81
2023-01-08T06:19:42.783Z,34.81
2023-01-08T06:20:12.924Z,34.87
2023-01-08T06:20:42.912Z,34.81
2023-01-08T06:21:12.910Z,34.86
2023-01-08T06:21:43.017Z,34.84
2023-01-08T06:22:13.141Z,34.80
2023-01-08T06:22:43.131Z,34.84
2023-01-08T06:23:13.242Z,34.84
2023-01-08T06:23:43.365Z,34.82
2023-01-08T06:24:13.525Z,34.79
2023-01-08T06:24:43.493Z,34.80
2023-01-08T06:25:13.608Z,34.83
2023-01-08T06:25:43.733Z,34.79
2023-01-08T06:26:13.725Z,34.79
2023-01-08T06:26:43.726Z,34.79
2023-01-08T06:27:13.756Z,34.79